ADDS METAR Data INFO
IDs: Format: Raw Decoded Include TAF

Data at: 1051 UTC 20 Sep 2017

KJCT 200959Z AUTO 17004KT 8SM BKN016 24/22 A2989 RMK AO2 T02390217 $
KJCT 200951Z AUTO 17005KT 8SM SCT016 24/22 A2989 RMK AO2 SLP079 T02390217 $
KJCT 200851Z AUTO 00000KT 8SM CLR 23/21 A2987 RMK AO2 SLP075 T02330211 58008 $
KJCT 200751Z AUTO 00000KT 8SM CLR 22/21 A2989 RMK AO2 SLP080 T02220206 $
KJCT 200651Z AUTO 00000KT 8SM CLR 21/20 A2989 RMK AO2 SLP084 T02110200 $
KJCT 200551Z AUTO 30004KT 6SM BR CLR 21/20 A2990 RMK AO2 SLP087 T02060200 10250 20206 403560206 50002 $
KJCT 200451Z AUTO 00000KT 8SM CLR 22/21 A2990 RMK AO2 SLP089 T02170206 $
KJCT 200351Z AUTO 32003KT 9SM CLR 22/21 A2990 RMK AO2 SLP088 T02220206 $
KJCT 200251Z AUTO 00000KT 10SM CLR 23/21 A2989 RMK AO2 SLP086 T02280206 53009 $
KJCT 200151Z AUTO 05004KT 10SM CLR 24/21 A2987 RMK AO2 SLP081 T02390206 $
KJCT 200051Z AUTO 00000KT 10SM CLR 24/21 A2985 RMK AO2 SLP074 T02440211 $
KJCT 192351Z AUTO 09004KT 10SM 24/21 A2986 RMK AO2 SLP076 6//// T02440211 10356 20239 $
KJCT 192151Z AUTO 29014G25KT 7SM -TSRA FEW039 OVC055 26/18 A2991 RMK AO2 PK WND 01028/2054 WSHFT 2045 LTG DSNT ALQDS RAB48 SLP091 P0000 T02610183
KJCT 192105Z AUTO 03015G26KT 9SM TS BKN070 BKN085 27/17 A2986 RMK AO2 PK WND 01028/2054 WSHFT 2045 LTG DSNT ALQDS T02670167
KJCT 192051Z AUTO 01019G27KT 8SM TS SCT065 30/16 A2985 RMK AO2 PK WND 02027/2047 LTG DSNT ALQDS TSB1958 SLP070 60001 T03000156 58018
KJCT 192016Z AUTO 18009KT 2 1/2SM TS HZ FEW002 SCT070 BKN085 35/18 A2985 RMK AO2 VIS 1V5 LTG DSNT W-NE TSB1958 T03500178
KJCT 191958Z AUTO 16010G15KT 5SM TS HZ FEW027 SCT065 BKN080 35/18 A2986 RMK AO2 LTG DSNT N-E TSB58 T03500178
KJCT 191951Z AUTO VRB06KT 6SM HZ FEW032 SCT070 BKN085 35/18 A2987 RMK AO2 LTG DSNT N-E RAB24E46 SLP072 P0001 T03500178
KJCT 191936Z AUTO 00000KT 3SM -RA FEW025 BKN070 BKN090 33/19 A2988 RMK AO2 RAB24 P0000 T03330194
KJCT 191851Z AUTO 19010G18KT 1 1/2SM HZ FEW001 SCT065 34/18 A2991 RMK AO2 VIS 3/4V5 SLP086 T03390183
KJCT 191846Z AUTO 19009G18KT 1SM HZ FEW001 SCT060 SCT085 34/18 A2991 RMK AO2 VIS 1/4V5
KJCT 191839Z AUTO 19008G15KT 1 1/2SM HZ FEW060 SCT080 34/18 A2991 RMK AO2 VIS 1/2V5 T03390183
KJCT 191824Z AUTO 23012G16KT 3SM HZ FEW001 SCT055 SCT080 34/18 A2992 RMK AO2 T03390178
KJCT 191813Z AUTO 21011G20KT 2SM HZ FEW001 SCT055 34/19 A2993 RMK AO2 VIS 1 1/4V4 T03390189
KJCT 191808Z AUTO 19012G20KT 3/4SM HZ FEW001 SCT055 34/19 A2993 RMK AO2 VIS 1/4V3 T03390189
KJCT 191751Z AUTO 19013G18KT 1 1/2SM HZ FEW002 FEW050 33/19 A2994 RMK AO2 VIS 1/2V5 SLP096 T03330189 10333 20239 58015
KJCT 191747Z AUTO 20011KT 1 3/4SM HZ FEW003 33/19 A2994 RMK AO2 VIS 3/4V5
KJCT 191726Z AUTO 18013G20KT 4SM HZ FEW001 33/19 A2995 RMK AO2 T03280194
KJCT 191651Z AUTO 18011G17KT 10SM CLR 32/20 A2996 RMK AO2 SLP105 T03220200
KJCT 191628Z AUTO 19011KT 10SM CLR 31/20 A2997 RMK AO2 T03110200
KJCT 191620Z AUTO 19009KT 2SM HZ FEW002 31/20 A2997 RMK AO2 T03110200
KJCT 191613Z AUTO 21011KT 1 3/4SM HZ FEW002 31/20 A2997 RMK AO2 VIS 1/2V5 T03060200
KJCT 191551Z AUTO 19009KT 3SM HZ FEW001 30/21 A2998 RMK AO2 SLP111 T03000206
KJCT 191451Z AUTO 20007KT 7SM FEW003 28/20 A2998 RMK AO2 SLP113 T02780200 51009
KJCT 191351Z AUTO 18005KT 5SM HZ CLR 26/21 A2998 RMK AO2 SLP112 T02560211
KJCT 191251Z AUTO 18003KT 7SM CLR 24/21 A2996 RMK AO2 SLP106 T02390211
KJCT 191151Z AUTO 00000KT 8SM FEW016 24/21 A2995 RMK AO2 SLP103 T02440211 10267 20244 53002
KJCT 191051Z AUTO 17007KT 9SM CLR 24/21 A2994 RMK AO2 SLP098 T02440211
KJCT 190951Z AUTO 17005KT 9SM CLR 24/21 A2994 RMK AO2 SLP098 T02440211
KJCT 190851Z AUTO 00000KT 10SM CLR 25/22 A2995 RMK AO2 SLP101 T02500217 55002
KJCT 190751Z AUTO 18005KT 10SM CLR 26/22 A2995 RMK AO2 SLP099 T02560217
KJCT 190651Z AUTO 19007KT 10SM CLR 26/22 A2995 RMK AO2 SLP101 T02610217
KJCT 190551Z AUTO 19006KT 10SM CLR 27/20 A2995 RMK AO2 SLP103 T02670200 10344 20267 403610222 50007
KJCT 190451Z AUTO 17009KT 10SM CLR 28/18 A2996 RMK AO2 SLP105 T02780183
KJCT 190351Z AUTO 00000KT 10SM CLR 28/16 A2996 RMK AO2 SLP105 T02830161
KJCT 190251Z AUTO 17006KT 10SM CLR 30/16 A2993 RMK AO2 SLP097 T03000161 53008
KJCT 190151Z AUTO 17006KT 10SM CLR 31/16 A2992 RMK AO2 SLP094 T03110156
KJCT 190051Z AUTO 16009KT 10SM CLR 33/14 A2991 RMK AO2 SLP090 T03280144
KJCT 182351Z AUTO 14010KT 10SM FEW085 34/14 A2991 RMK AO2 SLP087 T03440144 10361 20322 55011